createdAt,value
2022-10-03T00:02:12.977Z,80.91
2022-10-03T00:05:10.457Z,81.03
2022-10-03T00:08:06.808Z,80.74
2022-10-03T00:11:21.952Z,80.98
2022-10-03T00:14:40.162Z,80.69
2022-10-03T00:17:49.549Z,79.75
2022-10-03T00:20:19.636Z,79.63
2022-10-03T00:23:47.744Z,79.69
2022-10-03T00:26:47.629Z,79.42
2022-10-03T00:29:38.690Z,79.66
2022-10-03T00:33:03.540Z,80.08
2022-10-03T00:36:09.320Z,80.04
2022-10-03T00:39:22.464Z,80.08
2022-10-03T00:42:42.221Z,80.45
2022-10-03T00:45:57.498Z,80.43
2022-10-03T00:49:25.859Z,79.40
2022-10-03T00:52:39.353Z,80.16
2022-10-03T00:55:53.063Z,80.34
2022-10-03T00:59:14.695Z,79.96
2022-10-03T01:01:51.091Z,79.33
2022-10-03T01:05:15.909Z,78.90
2022-10-03T01:08:20.703Z,78.73
2022-10-03T01:11:40.685Z,79.62
2022-10-03T01:15:22.257Z,79.25
2022-10-03T01:19:02.112Z,79.61
2022-10-03T01:22:05.959Z,79.33
2022-10-03T01:25:19.530Z,80.61
2022-10-03T01:28:28.809Z,80.59
2022-10-03T01:31:05.484Z,81.87
2022-10-03T01:34:07.552Z,81.07
2022-10-03T01:37:40.896Z,80.19
2022-10-03T01:40:54.194Z,80.59
2022-10-03T01:43:35.009Z,80.95
2022-10-03T01:46:20.490Z,80.70
2022-10-03T01:49:09.453Z,80.74
2022-10-03T01:52:18.965Z,79.64
2022-10-03T01:55:47.131Z,79.75
2022-10-03T01:59:03.106Z,80.60
2022-10-03T02:02:12.801Z,80.33
2022-10-03T02:04:53.692Z,80.34
2022-10-03T02:08:25.283Z,80.21
2022-10-03T02:11:09.175Z,79.95
2022-10-03T02:13:48.631Z,79.70
2022-10-03T02:16:47.673Z,79.83
2022-10-03T02:19:56.852Z,80.07
2022-10-03T02:22:36.595Z,80.87
2022-10-03T02:25:51.532Z,80.94
2022-10-03T02:29:15.262Z,81.03
2022-10-03T02:32:00.564Z,81.22
2022-10-03T02:35:38.957Z,81.86
2022-10-03T02:38:40.907Z,81.76
2022-10-03T02:42:15.123Z,81.45
2022-10-03T02:45:15.501Z,81.58
2022-10-03T02:48:50.534Z,80.76
2022-10-03T02:52:01.248Z,80.69
2022-10-03T02:55:47.378Z,80.57
2022-10-03T02:59:10.844Z,80.69
2022-10-03T03:02:46.992Z,81.55
2022-10-03T03:06:29.270Z,81.08
2022-10-03T03:10:11.773Z,81.70
2022-10-03T03:13:42.725Z,81.45
2022-10-03T03:17:07.122Z,81.56
2022-10-03T03:20:07.845Z,81.43
2022-10-03T03:22:44.067Z,81.91
2022-10-03T03:25:59.844Z,82.05
2022-10-03T03:29:08.287Z,81.50
2022-10-03T03:32:28.152Z,81.88
2022-10-03T03:35:58.779Z,81.81
2022-10-03T03:39:24.008Z,81.27
2022-10-03T03:42:40.235Z,81.58
2022-10-03T03:45:49.633Z,81.91
2022-10-03T03:48:59.776Z,80.93
2022-10-03T03:52:35.169Z,81.56
2022-10-03T03:56:17.372Z,81.15
2022-10-03T03:59:30.103Z,81.33
2022-10-03T04:02:39.606Z,81.64
2022-10-03T04:06:18.786Z,81.74
2022-10-03T04:09:42.149Z,80.51
2022-10-03T04:13:36.936Z,80.52
2022-10-03T04:16:38.145Z,80.28
2022-10-03T04:19:48.875Z,80.59
2022-10-03T04:23:19.593Z,80.81
2022-10-03T04:26:31.160Z,80.53
2022-10-03T04:30:05.856Z,80.61
2022-10-03T04:32:57.175Z,79.73
2022-10-03T04:36:27.676Z,80.09
2022-10-03T04:39:36.476Z,80.40
2022-10-03T04:42:50.325Z,80.24
2022-10-03T04:46:27.469Z,80.22
2022-10-03T04:50:12.764Z,80.01
2022-10-03T04:53:28.974Z,80.41
2022-10-03T04:56:59.697Z,80.09
2022-10-03T05:00:48.151Z,80.27
2022-10-03T05:04:23.061Z,79.35
2022-10-03T05:07:22.384Z,79.85
2022-10-03T05:10:40.036Z,79.80
2022-10-03T05:13:45.391Z,80.17
2022-10-03T05:16:35.386Z,79.12
2022-10-03T05:19:53.875Z,79.89
2022-10-03T05:23:20.800Z,79.09
2022-10-03T05:27:05.611Z,79.56
2022-10-03T05:30:44.922Z,80.10
2022-10-03T05:34:39.140Z,79.42
2022-10-03T05:37:40.466Z,79.44
2022-10-03T05:40:34.346Z,80.73
2022-10-03T05:43:40.747Z,79.48
2022-10-03T05:46:59.159Z,78.83
2022-10-03T05:50:35.097Z,79.90
2022-10-03T05:53:42.868Z,79.34
2022-10-03T05:56:46.788Z,79.07
2022-10-03T06:00:14.961Z,79.15
2022-10-03T06:03:52.020Z,79.06
2022-10-03T06:07:29.007Z,79.65
2022-10-03T06:10:40.148Z,79.33
2022-10-03T06:14:06.029Z,79.40
2022-10-03T06:17:24.005Z,79.11
2022-10-03T06:20:11.553Z,79.07
2022-10-03T06:23:26.327Z,79.77
2022-10-03T06:26:45.210Z,79.43
2022-10-03T06:30:11.940Z,80.20
2022-10-03T06:33:39.327Z,80.18
2022-10-03T06:36:48.240Z,79.91
2022-10-03T06:40:19.413Z,80.29
2022-10-03T06:43:20.052Z,80.65
2022-10-03T06:46:53.438Z,79.91
2022-10-03T06:49:51.724Z,79.49
2022-10-03T06:53:23.073Z,80.02
2022-10-03T06:56:42.687Z,80.66
2022-10-03T07:00:00.025Z,80.83
2022-10-03T07:03:21.649Z,82.34
2022-10-03T07:06:27.706Z,81.84
2022-10-03T07:10:01.370Z,81.42
2022-10-03T07:13:06.480Z,80.57
2022-10-03T07:16:27.447Z,80.24
2022-10-03T07:19:41.270Z,79.66
2022-10-03T07:23:16.415Z,79.49
2022-10-03T07:26:49.573Z,80.94
2022-10-03T07:30:16.800Z,81.88
2022-10-03T07:33:36.705Z,81.34
2022-10-03T07:37:10.893Z,81.07
2022-10-03T07:40:17.591Z,80.55
2022-10-03T07:44:05.636Z,80.07
2022-10-03T07:47:32.583Z,81.23
2022-10-03T07:50:58.024Z,82.01
2022-10-03T07:54:42.621Z,82.17
2022-10-03T07:57:54.032Z,81.62
2022-10-03T08:00:48.613Z,81.59
2022-10-03T08:04:07.814Z,80.52
2022-10-03T08:06:56.928Z,80.75
2022-10-03T08:09:48.823Z,80.38
2022-10-03T08:13:58.488Z,79.92
2022-10-03T08:17:17.215Z,79.85
2022-10-03T08:20:28.007Z,80.36
2022-10-03T08:23:36.791Z,80.33
2022-10-03T08:26:49.989Z,80.19
2022-10-03T08:30:22.267Z,80.14
2022-10-03T08:33:22.129Z,79.01
2022-10-03T08:37:06.292Z,79.97
2022-10-03T08:41:16.032Z,80.63
2022-10-03T08:45:09.839Z,80.01
2022-10-03T08:48:44.541Z,79.28
2022-10-03T08:51:43.231Z,79.22
2022-10-03T08:54:47.048Z,79.88
2022-10-03T08:57:59.405Z,80.01
2022-10-03T09:01:43.878Z,80.13
2022-10-03T09:05:02.016Z,78.77
2022-10-03T09:08:20.634Z,79.70
2022-10-03T09:11:52.232Z,78.63
2022-10-03T09:15:14.210Z,79.11
2022-10-03T09:18:32.878Z,78.37
2022-10-03T09:22:39.117Z,79.08
2022-10-03T09:25:44.629Z,78.11
2022-10-03T09:28:52.837Z,79.16
2022-10-03T09:32:36.751Z,79.03
2022-10-03T09:36:34.642Z,78.16
2022-10-03T09:40:17.052Z,77.35
2022-10-03T09:43:32.935Z,77.25
2022-10-03T09:46:46.294Z,76.57
2022-10-03T09:50:55.287Z,76.83
2022-10-03T09:54:13.744Z,75.96
2022-10-03T09:58:00.738Z,75.05
2022-10-03T10:01:10.794Z,75.21
2022-10-03T10:04:54.924Z,74.89
2022-10-03T10:08:23.100Z,76.86
2022-10-03T10:12:03.145Z,74.22
2022-10-03T10:15:46.913Z,73.84
2022-10-03T10:18:49.798Z,72.11
2022-10-03T10:22:03.163Z,71.23
2022-10-03T10:24:59.553Z,71.14
2022-10-03T10:28:08.300Z,69.12
2022-10-03T10:31:38.539Z,67.30
2022-10-03T10:35:09.408Z,67.08
2022-10-03T10:38:45.173Z,65.24
2022-10-03T10:42:27.825Z,63.59
2022-10-03T10:45:42.009Z,60.77
2022-10-03T10:48:46.168Z,61.64
2022-10-03T10:51:54.310Z,60.52
2022-10-03T10:55:27.679Z,59.73
2022-10-03T10:59:24.859Z,58.73
2022-10-03T11:03:15.146Z,58.80
2022-10-03T11:06:53.484Z,58.57
2022-10-03T11:10:40.487Z,58.09
2022-10-03T11:14:28.253Z,60.67
2022-10-03T11:18:16.471Z,61.82
2022-10-03T11:21:33.709Z,62.52
2022-10-03T11:25:24.391Z,63.34
2022-10-03T11:29:01.315Z,62.28
2022-10-03T11:32:57.694Z,61.83
2022-10-03T11:35:53.004Z,63.50
2022-10-03T11:38:48.524Z,63.69
2022-10-03T11:42:33.374Z,64.24
2022-10-03T11:46:01.621Z,63.73
2022-10-03T11:49:11.217Z,63.91
2022-10-03T11:52:27.789Z,63.37
2022-10-03T11:55:42.123Z,63.51
2022-10-03T11:59:19.089Z,61.78
2022-10-03T12:02:36.000Z,62.44
2022-10-03T12:06:27.385Z,62.57
2022-10-03T12:09:27.667Z,63.37
2022-10-03T12:12:42.280Z,61.87
2022-10-03T12:15:54.265Z,62.07
2022-10-03T12:18:40.529Z,60.97
2022-10-03T12:21:53.661Z,60.65
2022-10-03T12:24:36.728Z,59.90
2022-10-03T12:28:04.949Z,60.15
2022-10-03T12:30:56.874Z,61.74
2022-10-03T12:34:18.281Z,60.58
2022-10-03T12:37:46.327Z,57.68
2022-10-03T12:40:43.621Z,57.03
2022-10-03T12:44:05.086Z,57.25
2022-10-03T12:47:37.577Z,57.78
2022-10-03T12:50:45.953Z,58.52
2022-10-03T12:53:17.375Z,59.21
2022-10-03T12:56:13.977Z,57.37
2022-10-03T12:59:31.771Z,57.29
2022-10-03T13:02:35.692Z,55.58
2022-10-03T13:05:37.666Z,54.46
2022-10-03T13:08:41.296Z,53.82
2022-10-03T13:12:03.661Z,52.49
2022-10-03T13:15:53.352Z,51.69
2022-10-03T13:18:49.183Z,51.69
2022-10-03T13:22:23.527Z,50.12
2022-10-03T13:25:24.198Z,49.05
2022-10-03T13:28:33.497Z,49.82
2022-10-03T13:31:26.971Z,49.43
2022-10-03T13:34:17.373Z,48.10
2022-10-03T13:37:22.393Z,49.67
2022-10-03T13:39:58.433Z,48.66
2022-10-03T13:42:53.551Z,48.85
2022-10-03T13:45:26.949Z,46.43
2022-10-03T13:48:16.968Z,47.34
2022-10-03T13:51:20.495Z,46.44
2022-10-03T13:54:26.209Z,46.36
2022-10-03T13:57:10.642Z,47.04
2022-10-03T14:00:17.316Z,49.79
2022-10-03T14:04:07.835Z,47.54
2022-10-03T14:06:56.880Z,48.23
2022-10-03T14:10:23.925Z,49.24
2022-10-03T14:13:32.107Z,48.49
2022-10-03T14:16:31.025Z,48.94
2022-10-03T14:20:29.817Z,48.89
2022-10-03T14:23:29.449Z,51.27
2022-10-03T14:26:33.678Z,50.18
2022-10-03T14:29:36.873Z,50.47
2022-10-03T14:32:46.746Z,52.24
2022-10-03T14:36:29.186Z,49.61
2022-10-03T14:39:39.029Z,50.18
2022-10-03T14:43:03.084Z,49.98
2022-10-03T14:45:56.455Z,50.54
2022-10-03T14:48:41.717Z,52.56
2022-10-03T14:51:47.560Z,51.82
2022-10-03T14:54:27.374Z,51.79
2022-10-03T14:56:57.308Z,51.55
2022-10-03T14:59:34.779Z,52.82
2022-10-03T15:02:45.801Z,50.30
2022-10-03T15:05:32.132Z,53.36
2022-10-03T15:08:00.629Z,53.30
2022-10-03T15:10:30.712Z,51.17
2022-10-03T15:13:11.974Z,52.49
2022-10-03T15:15:42.155Z,52.21
2022-10-03T15:18:21.561Z,51.98
2022-10-03T15:20:55.008Z,52.63
2022-10-03T15:23:44.837Z,52.33
2022-10-03T15:26:24.633Z,53.62
2022-10-03T15:29:00.913Z,53.07
2022-10-03T15:31:39.231Z,52.98
2022-10-03T15:34:23.765Z,51.27
2022-10-03T15:37:07.110Z,52.66
2022-10-03T15:39:43.794Z,53.27
2022-10-03T15:42:11.079Z,51.99
2022-10-03T15:45:07.115Z,52.62
2022-10-03T15:47:42.180Z,52.12
2022-10-03T15:50:30.769Z,52.06
2022-10-03T15:53:37.803Z,51.82
2022-10-03T15:56:29.924Z,51.01
2022-10-03T15:59:07.434Z,52.40
2022-10-03T16:01:46.820Z,51.82
2022-10-03T16:04:35.242Z,51.57
2022-10-03T16:07:43.828Z,52.74
2022-10-03T16:10:51.893Z,52.00
2022-10-03T16:13:49.092Z,53.43
2022-10-03T16:17:01.485Z,52.56
2022-10-03T16:19:50.136Z,53.24
2022-10-03T16:22:49.932Z,53.33
2022-10-03T16:25:27.766Z,54.52
2022-10-03T16:28:08.508Z,54.93
2022-10-03T16:30:58.582Z,56.08
2022-10-03T16:33:33.156Z,56.41
2022-10-03T16:36:08.949Z,56.97
2022-10-03T16:39:00.051Z,57.58
2022-10-03T16:41:34.134Z,58.83
2022-10-03T16:44:18.385Z,59.19
2022-10-03T16:46:48.503Z,58.76
2022-10-03T16:49:45.509Z,59.45
2022-10-03T16:52:21.358Z,59.84
2022-10-03T16:54:52.924Z,60.37
2022-10-03T16:57:48.102Z,60.20
2022-10-03T17:00:56.297Z,60.93
2022-10-03T17:04:02.431Z,61.14
2022-10-03T17:06:36.708Z,61.41
2022-10-03T17:09:24.507Z,62.33
2022-10-03T17:12:01.156Z,62.47
2022-10-03T17:14:39.551Z,63.34
2022-10-03T17:17:59.924Z,63.11
2022-10-03T17:20:54.285Z,63.24
2022-10-03T17:24:13.331Z,63.58
2022-10-03T17:26:49.774Z,64.20
2022-10-03T17:29:33.191Z,63.67
2022-10-03T17:32:38.192Z,64.26
2022-10-03T17:35:54.892Z,65.33
2022-10-03T17:38:50.276Z,64.34
2022-10-03T17:42:29.057Z,64.63
2022-10-03T17:45:47.767Z,64.64
2022-10-03T17:49:08.600Z,65.39
2022-10-03T17:51:44.850Z,65.01
2022-10-03T17:54:33.016Z,65.05
2022-10-03T17:57:34.543Z,65.62
2022-10-03T18:00:26.435Z,66.14
2022-10-03T18:03:28.819Z,66.08
2022-10-03T18:06:21.131Z,66.10
2022-10-03T18:08:52.644Z,66.03
2022-10-03T18:11:29.599Z,65.69
2022-10-03T18:15:20.389Z,66.13
2022-10-03T18:18:13.785Z,65.43
2022-10-03T18:21:15.288Z,66.00
2022-10-03T18:23:55.675Z,66.07
2022-10-03T18:26:41.517Z,67.04
2022-10-03T18:29:41.891Z,67.74
2022-10-03T18:32:23.272Z,68.08
2022-10-03T18:35:26.873Z,68.72
2022-10-03T18:38:18.642Z,68.00
2022-10-03T18:40:58.764Z,68.39
2022-10-03T18:43:59.754Z,68.67
2022-10-03T18:46:40.787Z,68.09
2022-10-03T18:49:34.357Z,69.01
2022-10-03T18:52:26.110Z,69.12
2022-10-03T18:55:17.911Z,68.91
2022-10-03T18:58:28.214Z,69.52
2022-10-03T19:01:18.601Z,69.22
2022-10-03T19:04:19.915Z,70.02
2022-10-03T19:06:53.833Z,70.32
2022-10-03T19:09:41.459Z,70.08
2022-10-03T19:12:22.460Z,70.49
2022-10-03T19:15:32.039Z,70.77
2022-10-03T19:18:33.820Z,71.35
2022-10-03T19:21:10.287Z,71.26
2022-10-03T19:23:42.793Z,71.45
2022-10-03T19:26:35.626Z,71.77
2022-10-03T19:29:20.039Z,71.10
2022-10-03T19:32:34.448Z,71.29
2022-10-03T19:35:05.737Z,70.44
2022-10-03T19:38:15.555Z,70.12
2022-10-03T19:41:26.793Z,70.13
2022-10-03T19:43:55.533Z,70.67
2022-10-03T19:46:37.503Z,71.23
2022-10-03T19:49:48.321Z,70.58
2022-10-03T19:52:41.922Z,71.08
2022-10-03T19:55:41.175Z,70.20
2022-10-03T19:58:08.348Z,70.30
2022-10-03T20:00:39.610Z,70.18
2022-10-03T20:03:55.000Z,69.60
2022-10-03T20:06:49.893Z,69.93
2022-10-03T20:09:34.069Z,70.17
2022-10-03T20:12:12.317Z,70.39
2022-10-03T20:14:44.305Z,70.75
2022-10-03T20:17:22.008Z,70.24
2022-10-03T20:20:09.816Z,70.28
2022-10-03T20:22:37.589Z,70.58
2022-10-03T20:25:19.834Z,71.42
2022-10-03T20:27:54.908Z,71.46
2022-10-03T20:30:52.441Z,71.05
2022-10-03T20:33:32.647Z,70.04
2022-10-03T20:36:30.292Z,70.91
2022-10-03T20:39:27.885Z,70.54
2022-10-03T20:42:13.783Z,71.94
2022-10-03T20:45:03.454Z,69.90
2022-10-03T20:48:09.497Z,70.01
2022-10-03T20:50:49.516Z,70.33
2022-10-03T20:53:25.010Z,69.94
2022-10-03T20:56:14.119Z,69.49
2022-10-03T20:58:56.443Z,70.05
2022-10-03T21:01:28.542Z,70.96
2022-10-03T21:04:38.736Z,71.48
2022-10-03T21:07:11.928Z,70.51
2022-10-03T21:10:44.011Z,71.35
2022-10-03T21:13:52.408Z,70.84
2022-10-03T21:16:34.644Z,70.42
2022-10-03T21:19:14.983Z,70.28
2022-10-03T21:22:00.264Z,70.81
2022-10-03T21:25:01.917Z,71.00
2022-10-03T21:27:31.457Z,71.33
2022-10-03T21:30:16.576Z,70.90
2022-10-03T21:33:18.033Z,70.34
2022-10-03T21:35:46.797Z,70.90
2022-10-03T21:38:32.147Z,70.78
2022-10-03T21:41:25.740Z,70.77
2022-10-03T21:44:10.632Z,71.10
2022-10-03T21:47:41.868Z,71.53
2022-10-03T21:50:33.062Z,72.16
2022-10-03T21:53:51.259Z,71.67
2022-10-03T21:56:57.968Z,71.69
2022-10-03T22:00:11.880Z,72.23
2022-10-03T22:04:01.335Z,72.19
2022-10-03T22:07:10.564Z,72.13
2022-10-03T22:09:51.134Z,71.82
2022-10-03T22:12:18.760Z,72.51
2022-10-03T22:15:12.020Z,72.48
2022-10-03T22:17:54.013Z,71.91
2022-10-03T22:20:33.676Z,72.33
2022-10-03T22:23:48.433Z,71.82
2022-10-03T22:26:55.701Z,71.66
2022-10-03T22:29:54.507Z,71.64
2022-10-03T22:33:29.537Z,72.51
2022-10-03T22:36:03.070Z,71.74
2022-10-03T22:38:36.305Z,72.90
2022-10-03T22:41:16.284Z,72.83
2022-10-03T22:43:46.355Z,73.26
2022-10-03T22:46:22.549Z,73.29
2022-10-03T22:49:10.384Z,73.40
2022-10-03T22:51:41.000Z,72.82
2022-10-03T22:54:16.580Z,72.72
2022-10-03T22:57:04.578Z,72.74
2022-10-03T23:00:02.011Z,72.77
2022-10-03T23:03:15.723Z,73.07
2022-10-03T23:06:29.827Z,72.95
2022-10-03T23:09:27.239Z,73.52
2022-10-03T23:11:57.499Z,73.35
2022-10-03T23:14:37.560Z,73.90
2022-10-03T23:18:08.552Z,74.54
2022-10-03T23:21:08.704Z,73.82
2022-10-03T23:24:35.268Z,74.31
2022-10-03T23:27:54.374Z,74.38
2022-10-03T23:30:24.443Z,73.96
2022-10-03T23:32:55.626Z,73.50
2022-10-03T23:35:31.821Z,74.21
2022-10-03T23:38:00.822Z,74.31
2022-10-03T23:40:47.887Z,73.62
2022-10-03T23:43:39.883Z,74.08
2022-10-03T23:46:28.070Z,74.25
2022-10-03T23:49:02.017Z,73.24
2022-10-03T23:51:36.200Z,74.64
2022-10-03T23:54:11.686Z,74.12
2022-10-03T23:56:49.377Z,74.25
2022-10-03T23:59:16.603Z,74.83
